sensor_id;sensor_type;location;lat;lon;timestamp;pressure;altitude;pressure_sealevel;temperature;humidity
33404;BME280;19751;40.274;18.268;2023-05-09T00:00:26;101074.63;;;18.15;100.00
33404;BME280;19751;40.274;18.268;2023-05-09T00:02:51;101071.31;;;18.13;100.00
33404;BME280;19751;40.274;18.268;2023-05-09T00:05:19;101070.72;;;18.11;100.00
33404;BME280;19751;40.274;18.268;2023-05-09T00:07:45;101073.88;;;18.08;100.00
33404;BME280;19751;40.274;18.268;2023-05-09T00:10:10;101077.09;;;18.05;100.00
33404;BME280;19751;40.274;18.268;2023-05-09T00:12:36;101069.97;;;18.04;100.00
33404;BME280;19751;40.274;18.268;2023-05-09T00:15:01;101078.00;;;17.99;100.00
33404;BME280;19751;40.274;18.268;2023-05-09T00:17:27;101088.06;;;17.98;100.00
33404;BME280;19751;40.274;18.268;2023-05-09T00:19:53;101081.53;;;17.87;100.00
33404;BME280;19751;40.274;18.268;2023-05-09T00:22:20;101077.81;;;17.82;100.00
33404;BME280;19751;40.274;18.268;2023-05-09T00:24:48;101072.34;;;17.82;100.00
33404;BME280;19751;40.274;18.268;2023-05-09T00:27:14;101068.56;;;17.83;100.00
33404;BME280;19751;40.274;18.268;2023-05-09T00:29:41;101063.88;;;17.90;100.00
33404;BME280;19751;40.274;18.268;2023-05-09T00:32:06;101060.06;;;17.91;100.00
33404;BME280;19751;40.274;18.268;2023-05-09T00:34:32;101073.25;;;17.94;100.00
33404;BME280;19751;40.274;18.268;2023-05-09T00:36:57;101064.00;;;17.95;100.00
33404;BME280;19751;40.274;18.268;2023-05-09T00:39:23;101064.31;;;17.87;100.00
33404;BME280;19751;40.274;18.268;2023-05-09T00:41:50;101053.91;;;17.84;100.00
33404;BME280;19751;40.274;18.268;2023-05-09T00:44:15;101067.03;;;17.87;100.00
33404;BME280;19751;40.274;18.268;2023-05-09T00:46:41;101065.19;;;17.87;100.00
33404;BME280;19751;40.274;18.268;2023-05-09T00:49:06;101062.22;;;17.89;100.00
33404;BME280;19751;40.274;18.268;2023-05-09T00:51:32;101064.47;;;17.92;100.00
33404;BME280;19751;40.274;18.268;2023-05-09T00:54:00;101065.69;;;17.96;100.00
33404;BME280;19751;40.274;18.268;2023-05-09T00:56:25;101065.44;;;17.98;100.00
33404;BME280;19751;40.274;18.268;2023-05-09T00:58:51;101060.38;;;18.01;100.00
33404;BME280;19751;40.274;18.268;2023-05-09T01:01:16;101064.50;;;18.04;100.00
33404;BME280;19751;40.274;18.268;2023-05-09T01:03:42;101056.13;;;18.05;100.00
33404;BME280;19751;40.274;18.268;2023-05-09T01:09:16;101053.16;;;18.07;100.00
33404;BME280;19751;40.274;18.268;2023-05-09T01:22:11;101060.75;;;18.05;100.00
33404;BME280;19751;40.274;18.268;2023-05-09T01:27:52;101065.00;;;18.01;100.00
33404;BME280;19751;40.274;18.268;2023-05-09T01:30:23;101061.66;;;17.99;100.00
33404;BME280;19751;40.274;18.268;2023-05-09T01:32:51;101062.59;;;17.93;100.00
33404;BME280;19751;40.274;18.268;2023-05-09T01:35:20;101061.84;;;17.85;100.00
33404;BME280;19751;40.274;18.268;2023-05-09T01:37:48;101058.16;;;17.80;100.00
33404;BME280;19751;40.274;18.268;2023-05-09T01:40:16;101054.13;;;17.82;100.00
33404;BME280;19751;40.274;18.268;2023-05-09T01:42:55;101055.78;;;17.83;100.00
33404;BME280;19751;40.274;18.268;2023-05-09T01:45:22;101062.28;;;17.82;100.00
33404;BME280;19751;40.274;18.268;2023-05-09T01:47:49;101057.91;;;17.81;100.00
33404;BME280;19751;40.274;18.268;2023-05-09T01:50:17;101057.16;;;17.74;100.00
33404;BME280;19751;40.274;18.268;2023-05-09T01:52:43;101059.47;;;17.71;100.00
33404;BME280;19751;40.274;18.268;2023-05-09T01:55:12;101064.69;;;17.72;100.00
33404;BME280;19751;40.274;18.268;2023-05-09T01:57:39;101061.16;;;17.72;100.00
33404;BME280;19751;40.274;18.268;2023-05-09T02:00:05;101060.91;;;17.73;100.00
33404;BME280;19751;40.274;18.268;2023-05-09T02:02:32;101066.16;;;17.75;100.00
33404;BME280;19751;40.274;18.268;2023-05-09T02:04:59;101063.25;;;17.70;100.00
33404;BME280;19751;40.274;18.268;2023-05-09T02:07:27;101070.47;;;17.64;100.00
33404;BME280;19751;40.274;18.268;2023-05-09T02:09:54;101063.81;;;17.60;100.00
33404;BME280;19751;40.274;18.268;2023-05-09T02:12:22;101064.63;;;17.60;100.00
33404;BME280;19751;40.274;18.268;2023-05-09T02:14:48;101062.16;;;17.59;100.00
33404;BME280;19751;40.274;18.268;2023-05-09T02:17:14;101061.22;;;17.65;100.00
33404;BME280;19751;40.274;18.268;2023-05-09T02:19:42;101058.44;;;17.72;100.00
33404;BME280;19751;40.274;18.268;2023-05-09T02:22:08;101060.50;;;17.76;100.00
33404;BME280;19751;40.274;18.268;2023-05-09T02:24:35;101055.19;;;17.81;100.00
33404;BME280;19751;40.274;18.268;2023-05-09T02:27:04;101040.28;;;17.84;100.00
33404;BME280;19751;40.274;18.268;2023-05-09T02:29:38;101038.97;;;17.86;100.00
33404;BME280;19751;40.274;18.268;2023-05-09T02:32:10;101038.59;;;17.83;100.00
33404;BME280;19751;40.274;18.268;2023-05-09T02:34:37;101033.00;;;17.78;100.00
33404;BME280;19751;40.274;18.268;2023-05-09T02:37:03;101034.50;;;17.74;100.00
33404;BME280;19751;40.274;18.268;2023-05-09T02:39:29;101030.81;;;17.68;100.00
33404;BME280;19751;40.274;18.268;2023-05-09T02:41:55;101035.63;;;17.66;100.00
33404;BME280;19751;40.274;18.268;2023-05-09T02:44:20;101037.09;;;17.69;100.00
33404;BME280;19751;40.274;18.268;2023-05-09T02:46:46;101030.19;;;17.66;100.00
33404;BME280;19751;40.274;18.268;2023-05-09T02:49:11;101039.88;;;17.62;100.00
33404;BME280;19751;40.274;18.268;2023-05-09T02:51:37;101033.41;;;17.63;100.00
33404;BME280;19751;40.274;18.268;2023-05-09T02:54:03;101022.25;;;17.64;100.00
33404;BME280;19751;40.274;18.268;2023-05-09T02:56:28;101019.66;;;17.70;100.00
33404;BME280;19751;40.274;18.268;2023-05-09T02:58:54;101020.50;;;17.70;100.00
33404;BME280;19751;40.274;18.268;2023-05-09T03:01:20;101029.50;;;17.71;100.00
33404;BME280;19751;40.274;18.268;2023-05-09T03:03:45;101024.75;;;17.66;100.00
33404;BME280;19751;40.274;18.268;2023-05-09T03:06:11;101028.53;;;17.65;100.00
33404;BME280;19751;40.274;18.268;2023-05-09T03:08:36;101027.94;;;17.63;100.00
33404;BME280;19751;40.274;18.268;2023-05-09T03:11:02;101023.53;;;17.62;100.00
33404;BME280;19751;40.274;18.268;2023-05-09T03:13:27;101024.59;;;17.61;100.00
33404;BME280;19751;40.274;18.268;2023-05-09T03:15:53;101018.56;;;17.59;100.00
33404;BME280;19751;40.274;18.268;2023-05-09T03:18:18;101025.06;;;17.58;100.00
33404;BME280;19751;40.274;18.268;2023-05-09T03:20:44;101036.63;;;17.53;100.00
33404;BME280;19751;40.274;18.268;2023-05-09T03:23:09;101029.59;;;17.46;100.00
33404;BME280;19751;40.274;18.268;2023-05-09T03:25:35;101038.44;;;17.41;100.00
33404;BME280;19751;40.274;18.268;2023-05-09T03:28:00;101039.75;;;17.38;100.00
33404;BME280;19751;40.274;18.268;2023-05-09T03:30:26;101044.81;;;17.35;100.00
33404;BME280;19751;40.274;18.268;2023-05-09T03:32:51;101042.94;;;17.35;100.00
33404;BME280;19751;40.274;18.268;2023-05-09T03:35:17;101052.16;;;17.34;100.00
33404;BME280;19751;40.274;18.268;2023-05-09T03:37:43;101056.53;;;17.35;100.00
33404;BME280;19751;40.274;18.268;2023-05-09T03:40:08;101053.13;;;17.40;100.00
33404;BME280;19751;40.274;18.268;2023-05-09T03:42:34;101048.31;;;17.42;100.00
33404;BME280;19751;40.274;18.268;2023-05-09T03:44:59;101058.97;;;17.44;100.00
33404;BME280;19751;40.274;18.268;2023-05-09T03:47:25;101066.06;;;17.45;100.00
33404;BME280;19751;40.274;18.268;2023-05-09T03:49:51;101066.69;;;17.47;100.00
33404;BME280;19751;40.274;18.268;2023-05-09T03:52:17;101070.25;;;17.47;100.00
33404;BME280;19751;40.274;18.268;2023-05-09T03:54:43;101065.00;;;17.46;100.00
33404;BME280;19751;40.274;18.268;2023-05-09T03:57:08;101070.69;;;17.44;100.00
33404;BME280;19751;40.274;18.268;2023-05-09T03:59:34;101069.03;;;17.43;100.00
33404;BME280;19751;40.274;18.268;2023-05-09T04:01:59;101068.19;;;17.43;100.00
33404;BME280;19751;40.274;18.268;2023-05-09T04:04:25;101056.25;;;17.44;100.00
33404;BME280;19751;40.274;18.268;2023-05-09T04:06:51;101068.78;;;17.45;100.00
33404;BME280;19751;40.274;18.268;2023-05-09T04:09:17;101080.13;;;17.42;100.00
33404;BME280;19751;40.274;18.268;2023-05-09T04:11:43;101078.72;;;17.39;100.00
33404;BME280;19751;40.274;18.268;2023-05-09T04:14:08;101074.09;;;17.39;100.00
33404;BME280;19751;40.274;18.268;2023-05-09T04:16:34;101079.09;;;17.43;100.00
33404;BME280;19751;40.274;18.268;2023-05-09T04:18:59;101084.53;;;17.43;100.00
33404;BME280;19751;40.274;18.268;2023-05-09T04:21:25;101073.56;;;17.49;100.00
33404;BME280;19751;40.274;18.268;2023-05-09T04:23:50;101062.59;;;17.56;100.00
33404;BME280;19751;40.274;18.268;2023-05-09T04:26:15;101070.69;;;17.62;100.00
33404;BME280;19751;40.274;18.268;2023-05-09T04:28:42;101071.66;;;17.68;100.00
33404;BME280;19751;40.274;18.268;2023-05-09T04:31:08;101081.66;;;17.74;100.00
33404;BME280;19751;40.274;18.268;2023-05-09T04:33:33;101080.78;;;17.80;100.00
33404;BME280;19751;40.274;18.268;2023-05-09T04:36:00;101067.53;;;17.84;100.00
33404;BME280;19751;40.274;18.268;2023-05-09T04:38:25;101068.50;;;17.89;100.00
33404;BME280;19751;40.274;18.268;2023-05-09T04:40:51;101072.66;;;17.92;100.00
33404;BME280;19751;40.274;18.268;2023-05-09T04:43:16;101079.06;;;17.98;100.00
33404;BME280;19751;40.274;18.268;2023-05-09T04:45:43;101085.97;;;18.00;100.00
33404;BME280;19751;40.274;18.268;2023-05-09T04:48:09;101092.94;;;17.96;100.00
33404;BME280;19751;40.274;18.268;2023-05-09T04:50:35;101089.22;;;17.91;100.00
33404;BME280;19751;40.274;18.268;2023-05-09T04:53:00;101085.66;;;17.90;100.00
33404;BME280;19751;40.274;18.268;2023-05-09T04:55:26;101078.13;;;17.92;100.00
33404;BME280;19751;40.274;18.268;2023-05-09T04:57:51;101089.84;;;17.93;100.00
33404;BME280;19751;40.274;18.268;2023-05-09T05:00:17;101094.22;;;17.94;100.00
33404;BME280;19751;40.274;18.268;2023-05-09T05:02:43;101092.69;;;17.98;100.00
33404;BME280;19751;40.274;18.268;2023-05-09T05:05:09;101086.78;;;18.01;100.00
33404;BME280;19751;40.274;18.268;2023-05-09T05:07:35;101081.94;;;18.03;100.00
33404;BME280;19751;40.274;18.268;2023-05-09T05:10:00;101080.41;;;18.07;100.00
33404;BME280;19751;40.274;18.268;2023-05-09T05:12:26;101078.31;;;18.09;100.00
33404;BME280;19751;40.274;18.268;2023-05-09T05:14:51;101071.78;;;18.10;100.00
33404;BME280;19751;40.274;18.268;2023-05-09T05:17:17;101080.53;;;18.12;100.00
33404;BME280;19751;40.274;18.268;2023-05-09T05:19:42;101079.50;;;18.13;100.00
33404;BME280;19751;40.274;18.268;2023-05-09T05:22:08;101074.88;;;18.13;100.00
33404;BME280;19751;40.274;18.268;2023-05-09T05:24:33;101069.81;;;18.17;100.00
33404;BME280;19751;40.274;18.268;2023-05-09T05:26:59;101081.53;;;18.18;100.00
33404;BME280;19751;40.274;18.268;2023-05-09T05:29:24;101096.44;;;18.15;100.00
33404;BME280;19751;40.274;18.268;2023-05-09T05:31:50;101096.31;;;18.10;100.00
33404;BME280;19751;40.274;18.268;2023-05-09T05:34:15;101097.84;;;18.06;100.00
33404;BME280;19751;40.274;18.268;2023-05-09T05:36:42;101097.69;;;18.01;100.00
33404;BME280;19751;40.274;18.268;2023-05-09T05:39:07;101094.72;;;18.02;100.00
33404;BME280;19751;40.274;18.268;2023-05-09T05:41:33;101100.19;;;18.02;100.00
33404;BME280;19751;40.274;18.268;2023-05-09T05:43:58;101101.94;;;17.97;100.00
33404;BME280;19751;40.274;18.268;2023-05-09T05:46:24;101092.69;;;17.98;100.00
33404;BME280;19751;40.274;18.268;2023-05-09T05:48:49;101087.69;;;17.95;100.00
33404;BME280;19751;40.274;18.268;2023-05-09T05:51:15;101084.59;;;17.91;100.00
33404;BME280;19751;40.274;18.268;2023-05-09T05:53:40;101092.56;;;17.93;100.00
33404;BME280;19751;40.274;18.268;2023-05-09T05:56:06;101088.19;;;17.92;100.00
33404;BME280;19751;40.274;18.268;2023-05-09T05:58:31;101082.25;;;17.95;100.00
33404;BME280;19751;40.274;18.268;2023-05-09T06:00:57;101077.19;;;17.98;100.00
33404;BME280;19751;40.274;18.268;2023-05-09T06:03:22;101076.34;;;17.98;100.00
33404;BME280;19751;40.274;18.268;2023-05-09T06:05:48;101079.00;;;18.04;100.00
33404;BME280;19751;40.274;18.268;2023-05-09T06:08:14;101073.31;;;18.06;100.00
33404;BME280;19751;40.274;18.268;2023-05-09T06:10:39;101079.34;;;18.08;100.00
33404;BME280;19751;40.274;18.268;2023-05-09T06:13:05;101074.25;;;18.11;100.00
33404;BME280;19751;40.274;18.268;2023-05-09T06:15:30;101079.97;;;18.10;100.00
33404;BME280;19751;40.274;18.268;2023-05-09T06:17:56;101084.59;;;18.09;100.00
33404;BME280;19751;40.274;18.268;2023-05-09T06:20:21;101089.19;;;18.09;100.00
33404;BME280;19751;40.274;18.268;2023-05-09T06:22:47;101088.97;;;18.10;100.00
33404;BME280;19751;40.274;18.268;2023-05-09T06:25:12;101091.38;;;18.19;100.00
33404;BME280;19751;40.274;18.268;2023-05-09T06:27:38;101095.91;;;18.25;100.00
33404;BME280;19751;40.274;18.268;2023-05-09T06:30:04;101090.81;;;18.28;100.00
33404;BME280;19751;40.274;18.268;2023-05-09T06:32:30;101095.34;;;18.34;100.00
33404;BME280;19751;40.274;18.268;2023-05-09T06:34:55;101093.19;;;18.36;100.00
33404;BME280;19751;40.274;18.268;2023-05-09T06:37:20;101093.81;;;18.38;100.00
33404;BME280;19751;40.274;18.268;2023-05-09T06:39:46;101091.81;;;18.46;100.00
33404;BME280;19751;40.274;18.268;2023-05-09T06:42:11;101088.97;;;18.52;100.00
33404;BME280;19751;40.274;18.268;2023-05-09T06:44:37;101087.22;;;18.58;100.00
33404;BME280;19751;40.274;18.268;2023-05-09T06:47:02;101081.66;;;18.64;100.00
33404;BME280;19751;40.274;18.268;2023-05-09T06:49:28;101086.66;;;18.68;100.00
33404;BME280;19751;40.274;18.268;2023-05-09T06:51:53;101081.09;;;18.74;100.00
33404;BME280;19751;40.274;18.268;2023-05-09T06:54:19;101084.69;;;18.75;100.00
33404;BME280;19751;40.274;18.268;2023-05-09T06:56:44;101082.28;;;18.78;100.00
33404;BME280;19751;40.274;18.268;2023-05-09T06:59:10;101080.16;;;18.80;100.00
33404;BME280;19751;40.274;18.268;2023-05-09T07:01:38;101080.53;;;18.84;100.00
33404;BME280;19751;40.274;18.268;2023-05-09T07:04:04;101079.22;;;18.86;100.00
33404;BME280;19751;40.274;18.268;2023-05-09T07:06:30;101084.44;;;18.88;100.00
33404;BME280;19751;40.274;18.268;2023-05-09T07:08:55;101076.84;;;18.90;100.00
33404;BME280;19751;40.274;18.268;2023-05-09T07:11:21;101077.22;;;18.94;100.00
33404;BME280;19751;40.274;18.268;2023-05-09T07:13:47;101074.47;;;18.94;100.00
33404;BME280;19751;40.274;18.268;2023-05-09T07:16:12;101067.94;;;18.95;100.00
33404;BME280;19751;40.274;18.268;2023-05-09T07:18:38;101068.91;;;19.00;100.00
33404;BME280;19751;40.274;18.268;2023-05-09T07:21:03;101063.81;;;19.04;100.00
33404;BME280;19751;40.274;18.268;2023-05-09T07:23:29;101065.00;;;19.08;100.00
33404;BME280;19751;40.274;18.268;2023-05-09T07:25:57;101072.94;;;19.09;100.00
33404;BME280;19751;40.274;18.268;2023-05-09T07:28:23;101066.78;;;19.14;100.00
33404;BME280;19751;40.274;18.268;2023-05-09T07:30:49;101070.69;;;19.18;100.00
33404;BME280;19751;40.274;18.268;2023-05-09T07:33:15;101067.47;;;19.21;100.00
33404;BME280;19751;40.274;18.268;2023-05-09T07:35:40;101069.13;;;19.22;100.00
33404;BME280;19751;40.274;18.268;2023-05-09T07:38:05;101050.63;;;19.24;100.00
33404;BME280;19751;40.274;18.268;2023-05-09T07:40:31;101058.09;;;19.29;100.00
33404;BME280;19751;40.274;18.268;2023-05-09T07:43:00;101050.59;;;19.36;100.00
33404;BME280;19751;40.274;18.268;2023-05-09T07:45:26;101045.56;;;19.45;100.00
33404;BME280;19751;40.274;18.268;2023-05-09T07:47:51;101055.56;;;19.51;100.00
33404;BME280;19751;40.274;18.268;2023-05-09T07:50:17;101051.03;;;19.56;100.00
33404;BME280;19751;40.274;18.268;2023-05-09T07:52:42;101050.31;;;19.61;100.00
33404;BME280;19751;40.274;18.268;2023-05-09T07:55:08;101050.44;;;19.66;100.00
33404;BME280;19751;40.274;18.268;2023-05-09T07:57:34;101045.56;;;19.68;100.00
33404;BME280;19751;40.274;18.268;2023-05-09T08:00:00;101051.13;;;19.73;100.00
33404;BME280;19751;40.274;18.268;2023-05-09T08:02:25;101048.16;;;19.75;100.00
33404;BME280;19751;40.274;18.268;2023-05-09T08:04:50;101055.63;;;19.79;100.00
33404;BME280;19751;40.274;18.268;2023-05-09T08:07:16;101050.00;;;19.86;100.00
33404;BME280;19751;40.274;18.268;2023-05-09T08:09:41;101055.34;;;19.93;100.00
33404;BME280;19751;40.274;18.268;2023-05-09T08:12:07;101048.31;;;19.97;100.00
33404;BME280;19751;40.274;18.268;2023-05-09T08:14:33;101050.06;;;20.03;100.00
33404;BME280;19751;40.274;18.268;2023-05-09T08:16:58;101057.78;;;20.06;100.00
33404;BME280;19751;40.274;18.268;2023-05-09T08:19:24;101053.72;;;20.08;100.00
33404;BME280;19751;40.274;18.268;2023-05-09T08:21:51;101048.59;;;20.12;100.00
33404;BME280;19751;40.274;18.268;2023-05-09T08:24:16;101051.09;;;20.14;100.00
33404;BME280;19751;40.274;18.268;2023-05-09T08:26:42;101051.69;;;20.16;100.00
33404;BME280;19751;40.274;18.268;2023-05-09T08:29:09;101048.22;;;20.20;100.00
33404;BME280;19751;40.274;18.268;2023-05-09T08:31:34;101039.25;;;20.25;100.00
33404;BME280;19751;40.274;18.268;2023-05-09T08:34:00;101050.56;;;20.28;100.00
33404;BME280;19751;40.274;18.268;2023-05-09T08:36:26;101039.34;;;20.30;100.00
33404;BME280;19751;40.274;18.268;2023-05-09T08:38:52;101041.81;;;20.31;100.00
33404;BME280;19751;40.274;18.268;2023-05-09T08:41:18;101037.53;;;20.35;100.00
33404;BME280;19751;40.274;18.268;2023-05-09T08:43:48;101037.63;;;20.41;100.00
33404;BME280;19751;40.274;18.268;2023-05-09T08:46:15;101044.00;;;20.46;100.00
33404;BME280;19751;40.274;18.268;2023-05-09T08:48:42;101036.16;;;20.50;100.00
33404;BME280;19751;40.274;18.268;2023-05-09T08:51:09;101031.25;;;20.52;100.00
33404;BME280;19751;40.274;18.268;2023-05-09T08:53:36;101028.88;;;20.55;100.00
33404;BME280;19751;40.274;18.268;2023-05-09T08:56:02;101030.28;;;20.58;100.00
33404;BME280;19751;40.274;18.268;2023-05-09T08:58:30;101024.81;;;20.58;100.00
33404;BME280;19751;40.274;18.268;2023-05-09T09:00:55;101025.63;;;20.58;100.00
33404;BME280;19751;40.274;18.268;2023-05-09T09:03:22;101027.03;;;20.61;100.00
33404;BME280;19751;40.274;18.268;2023-05-09T09:05:48;101032.50;;;20.61;100.00
33404;BME280;19751;40.274;18.268;2023-05-09T09:08:16;101026.81;;;20.63;100.00
33404;BME280;19751;40.274;18.268;2023-05-09T09:10:43;101019.97;;;20.65;100.00
33404;BME280;19751;40.274;18.268;2023-05-09T09:13:12;101028.78;;;20.67;100.00
33404;BME280;19751;40.274;18.268;2023-05-09T09:15:39;101028.28;;;20.70;100.00
33404;BME280;19751;40.274;18.268;2023-05-09T09:18:08;101028.28;;;20.70;100.00
33404;BME280;19751;40.274;18.268;2023-05-09T09:20:45;101031.03;;;20.70;100.00
33404;BME280;19751;40.274;18.268;2023-05-09T09:23:17;101036.25;;;20.72;100.00
33404;BME280;19751;40.274;18.268;2023-05-09T09:25:45;101051.25;;;20.69;100.00
33404;BME280;19751;40.274;18.268;2023-05-09T09:28:11;101052.00;;;20.65;100.00
33404;BME280;19751;40.274;18.268;2023-05-09T09:30:51;101050.59;;;20.62;100.00
33404;BME280;19751;40.274;18.268;2023-05-09T09:33:23;101054.41;;;20.61;100.00
33404;BME280;19751;40.274;18.268;2023-05-09T09:35:51;101066.09;;;20.56;100.00
33404;BME280;19751;40.274;18.268;2023-05-09T09:38:18;101066.59;;;20.53;100.00
33404;BME280;19751;40.274;18.268;2023-05-09T09:43:15;101063.41;;;20.45;100.00
33404;BME280;19751;40.274;18.268;2023-05-09T09:45:41;101059.81;;;20.44;100.00
33404;BME280;19751;40.274;18.268;2023-05-09T09:48:06;101064.47;;;20.44;100.00
33404;BME280;19751;40.274;18.268;2023-05-09T09:50:32;101060.09;;;20.43;100.00
33404;BME280;19751;40.274;18.268;2023-05-09T09:52:57;101056.25;;;20.44;100.00
33404;BME280;19751;40.274;18.268;2023-05-09T09:55:25;101053.03;;;20.47;100.00
33404;BME280;19751;40.274;18.268;2023-05-09T09:57:51;101053.03;;;20.47;100.00
33404;BME280;19751;40.274;18.268;2023-05-09T10:00:18;101054.50;;;20.49;100.00
33404;BME280;19751;40.274;18.268;2023-05-09T10:02:54;101049.22;;;20.48;100.00
33404;BME280;19751;40.274;18.268;2023-05-09T10:05:38;101049.84;;;20.50;100.00
33404;BME280;19751;40.274;18.268;2023-05-09T10:08:05;101051.50;;;20.51;100.00
33404;BME280;19751;40.274;18.268;2023-05-09T10:10:33;101054.84;;;20.53;100.00
33404;BME280;19751;40.274;18.268;2023-05-09T10:13:10;101056.50;;;20.54;100.00
33404;BME280;19751;40.274;18.268;2023-05-09T10:15:40;101055.31;;;20.50;100.00
33404;BME280;19751;40.274;18.268;2023-05-09T10:18:09;101059.34;;;20.47;100.00
33404;BME280;19751;40.274;18.268;2023-05-09T10:20:36;101061.25;;;20.47;100.00
33404;BME280;19751;40.274;18.268;2023-05-09T10:23:05;101051.97;;;20.48;100.00
33404;BME280;19751;40.274;18.268;2023-05-09T10:25:53;101067.91;;;20.51;100.00
33404;BME280;19751;40.274;18.268;2023-05-09T10:28:27;101059.78;;;20.56;100.00
33404;BME280;19751;40.274;18.268;2023-05-09T10:31:00;101055.75;;;20.58;100.00
33404;BME280;19751;40.274;18.268;2023-05-09T10:33:33;101057.41;;;20.59;100.00
33404;BME280;19751;40.274;18.268;2023-05-09T10:36:02;101054.91;;;20.58;100.00
33404;BME280;19751;40.274;18.268;2023-05-09T10:38:29;101056.50;;;20.54;100.00
33404;BME280;19751;40.274;18.268;2023-05-09T10:40:55;101056.50;;;20.54;100.00
33404;BME280;19751;40.274;18.268;2023-05-09T10:43:21;101056.97;;;20.51;100.00
33404;BME280;19751;40.274;18.268;2023-05-09T10:45:49;101058.88;;;20.50;100.00
33404;BME280;19751;40.274;18.268;2023-05-09T10:48:16;101053.66;;;20.49;100.00
33404;BME280;19751;40.274;18.268;2023-05-09T10:50:44;101057.25;;;20.49;100.00
33404;BME280;19751;40.274;18.268;2023-05-09T10:53:10;101058.41;;;20.53;100.00
33404;BME280;19751;40.274;18.268;2023-05-09T10:55:56;101059.56;;;20.57;100.00
33404;BME280;19751;40.274;18.268;2023-05-09T10:58:30;101055.75;;;20.58;100.00
33404;BME280;19751;40.274;18.268;2023-05-09T11:01:02;101059.56;;;20.57;100.00
33404;BME280;19751;40.274;18.268;2023-05-09T11:03:52;101069.09;;;20.55;100.00
33404;BME280;19751;40.274;18.268;2023-05-09T11:11:58;101068.59;;;20.58;100.00
33404;BME280;19751;40.274;18.268;2023-05-09T11:17:05;101057.66;;;20.58;100.00
33404;BME280;19751;40.274;18.268;2023-05-09T11:22:19;101063.47;;;20.62;100.00
33404;BME280;19751;40.274;18.268;2023-05-09T11:24:47;101053.56;;;20.60;100.00
33404;BME280;19751;40.274;18.268;2023-05-09T11:27:20;101059.03;;;20.60;100.00
33404;BME280;19751;40.274;18.268;2023-05-09T11:29:51;101056.31;;;20.60;100.00
33404;BME280;19751;40.274;18.268;2023-05-09T11:32:18;101058.13;;;20.55;100.00
33404;BME280;19751;40.274;18.268;2023-05-09T11:34:44;101059.78;;;20.56;100.00
33404;BME280;19751;40.274;18.268;2023-05-09T11:37:11;101049.66;;;20.56;100.00
33404;BME280;19751;40.274;18.268;2023-05-09T11:39:56;101058.13;;;20.55;100.00
33404;BME280;19751;40.274;18.268;2023-05-09T11:42:24;101053.50;;;20.55;100.00
33404;BME280;19751;40.274;18.268;2023-05-09T11:44:51;101058.97;;;20.55;100.00
33404;BME280;19751;40.274;18.268;2023-05-09T11:47:18;101063.28;;;20.51;100.00
33404;BME280;19751;40.274;18.268;2023-05-09T11:49:44;101056.16;;;20.50;100.00
33404;BME280;19751;40.274;18.268;2023-05-09T11:52:10;101051.50;;;20.51;100.00
33404;BME280;19751;40.274;18.268;2023-05-09T11:54:37;101050.69;;;20.50;100.00
33404;BME280;19751;40.274;18.268;2023-05-09T11:57:03;101059.34;;;20.47;100.00
33404;BME280;19751;40.274;18.268;2023-05-09T11:59:29;101056.25;;;20.44;100.00
33404;BME280;19751;40.274;18.268;2023-05-09T12:01:55;101054.34;;;20.44;100.00
33404;BME280;19751;40.274;18.268;2023-05-09T12:04:21;101050.78;;;20.44;100.00
33404;BME280;19751;40.274;18.268;2023-05-09T12:06:47;101052.47;;;20.45;100.00
33404;BME280;19751;40.274;18.268;2023-05-09T12:09:16;101044.84;;;20.47;100.00
33404;BME280;19751;40.274;18.268;2023-05-09T12:11:48;101054.13;;;20.46;100.00
33404;BME280;19751;40.274;18.268;2023-05-09T12:14:29;101037.25;;;20.49;100.00
33404;BME280;19751;40.274;18.268;2023-05-09T12:16:55;101040.56;;;20.51;100.00
33404;BME280;19751;40.274;18.268;2023-05-09T12:19:25;101042.22;;;20.52;100.00
33404;BME280;19751;40.274;18.268;2023-05-09T12:21:58;101043.38;;;20.56;100.00
33404;BME280;19751;40.274;18.268;2023-05-09T12:24:27;101045.06;;;20.57;100.00
33404;BME280;19751;40.274;18.268;2023-05-09T12:26:57;101037.91;;;20.56;100.00
33404;BME280;19751;40.274;18.268;2023-05-09T12:29:24;101037.91;;;20.56;100.00
33404;BME280;19751;40.274;18.268;2023-05-09T12:31:51;101030.50;;;20.56;100.00
33404;BME280;19751;40.274;18.268;2023-05-09T12:34:18;101028.63;;;20.57;100.00
33404;BME280;19751;40.274;18.268;2023-05-09T12:36:45;101027.56;;;20.58;100.00
33404;BME280;19751;40.274;18.268;2023-05-09T12:39:18;101034.94;;;20.57;100.00
33404;BME280;19751;40.274;18.268;2023-05-09T12:41:50;101025.31;;;20.55;100.00
33404;BME280;19751;40.274;18.268;2023-05-09T12:44:19;101032.44;;;20.56;100.00
33404;BME280;19751;40.274;18.268;2023-05-09T12:46:56;101027.56;;;20.58;100.00
33404;BME280;19751;40.274;18.268;2023-05-09T12:49:24;101030.84;;;20.60;100.00
33404;BME280;19751;40.274;18.268;2023-05-09T12:51:51;101027.03;;;20.61;100.00
33404;BME280;19751;40.274;18.268;2023-05-09T12:54:25;101022.66;;;20.60;100.00
33404;BME280;19751;40.274;18.268;2023-05-09T12:56:52;101018.00;;;20.60;100.00
33404;BME280;19751;40.274;18.268;2023-05-09T12:59:35;101016.34;;;20.59;100.00